sensor_id;sensor_type;location;lat;lon;timestamp;P1;durP1;ratioP1;P2;durP2;ratioP2
11646;SDS011;5880;52.342;9.662;2022-09-30T00:00:01;3.43;;;3.13;;
11646;SDS011;5880;52.342;9.662;2022-09-30T00:02:28;3.47;;;3.13;;
11646;SDS011;5880;52.342;9.662;2022-09-30T00:04:54;4.00;;;3.70;;
11646;SDS011;5880;52.342;9.662;2022-09-30T00:07:19;4.07;;;3.30;;
11646;SDS011;5880;52.342;9.662;2022-09-30T00:09:45;4.03;;;3.43;;
11646;SDS011;5880;52.342;9.662;2022-09-30T00:12:12;3.57;;;3.27;;
11646;SDS011;5880;52.342;9.662;2022-09-30T00:14:37;3.50;;;3.20;;
11646;SDS011;5880;52.342;9.662;2022-09-30T00:17:03;3.50;;;3.20;;
11646;SDS011;5880;52.342;9.662;2022-09-30T00:19:29;3.33;;;3.10;;
11646;SDS011;5880;52.342;9.662;2022-09-30T00:21:54;3.40;;;3.10;;
11646;SDS011;5880;52.342;9.662;2022-09-30T00:24:20;4.40;;;3.27;;
11646;SDS011;5880;52.342;9.662;2022-09-30T00:26:46;3.40;;;3.10;;
11646;SDS011;5880;52.342;9.662;2022-09-30T00:29:11;3.47;;;3.17;;
11646;SDS011;5880;52.342;9.662;2022-09-30T00:31:37;3.77;;;3.47;;
11646;SDS011;5880;52.342;9.662;2022-09-30T00:34:03;5.97;;;3.67;;
11646;SDS011;5880;52.342;9.662;2022-09-30T00:39:00;4.00;;;3.70;;
11646;SDS011;5880;52.342;9.662;2022-09-30T00:41:28;4.00;;;3.70;;
11646;SDS011;5880;52.342;9.662;2022-09-30T00:43:54;4.33;;;3.93;;
11646;SDS011;5880;52.342;9.662;2022-09-30T00:46:36;3.90;;;3.60;;
11646;SDS011;5880;52.342;9.662;2022-09-30T00:49:08;3.97;;;3.67;;
11646;SDS011;5880;52.342;9.662;2022-09-30T00:51:42;3.90;;;3.60;;
11646;SDS011;5880;52.342;9.662;2022-09-30T00:54:19;3.80;;;3.50;;
11646;SDS011;5880;52.342;9.662;2022-09-30T00:56:54;3.50;;;3.20;;
11646;SDS011;5880;52.342;9.662;2022-09-30T00:59:36;3.73;;;3.33;;
11646;SDS011;5880;52.342;9.662;2022-09-30T01:02:09;3.63;;;3.33;;
11646;SDS011;5880;52.342;9.662;2022-09-30T01:04:38;3.73;;;3.43;;
11646;SDS011;5880;52.342;9.662;2022-09-30T01:07:07;3.53;;;3.30;;
11646;SDS011;5880;52.342;9.662;2022-09-30T01:09:35;3.77;;;3.23;;
11646;SDS011;5880;52.342;9.662;2022-09-30T01:12:08;3.60;;;3.30;;
11646;SDS011;5880;52.342;9.662;2022-09-30T01:14:43;3.23;;;3.00;;
11646;SDS011;5880;52.342;9.662;2022-09-30T01:40:32;3.33;;;3.03;;
11646;SDS011;5880;52.342;9.662;2022-09-30T01:46:02;3.93;;;3.20;;
11646;SDS011;5880;52.342;9.662;2022-09-30T01:49:11;3.23;;;3.03;;
11646;SDS011;5880;52.342;9.662;2022-09-30T01:51:48;4.57;;;3.63;;
11646;SDS011;5880;52.342;9.662;2022-09-30T01:54:18;3.63;;;3.33;;
11646;SDS011;5880;52.342;9.662;2022-09-30T01:57:09;3.43;;;3.13;;
11646;SDS011;5880;52.342;9.662;2022-09-30T01:59:52;3.97;;;3.57;;
11646;SDS011;5880;52.342;9.662;2022-09-30T02:02:28;3.50;;;3.20;;
11646;SDS011;5880;52.342;9.662;2022-09-30T02:04:58;3.67;;;3.37;;
11646;SDS011;5880;52.342;9.662;2022-09-30T02:07:48;3.77;;;3.47;;
11646;SDS011;5880;52.342;9.662;2022-09-30T02:10:41;4.30;;;3.90;;
11646;SDS011;5880;52.342;9.662;2022-09-30T02:13:30;3.80;;;3.50;;
11646;SDS011;5880;52.342;9.662;2022-09-30T02:16:09;4.00;;;3.70;;
11646;SDS011;5880;52.342;9.662;2022-09-30T02:18:44;3.87;;;3.57;;
11646;SDS011;5880;52.342;9.662;2022-09-30T02:21:23;4.30;;;3.90;;
11646;SDS011;5880;52.342;9.662;2022-09-30T02:23:59;4.47;;;4.07;;
11646;SDS011;5880;52.342;9.662;2022-09-30T02:26:36;3.87;;;3.57;;
11646;SDS011;5880;52.342;9.662;2022-09-30T02:29:12;3.77;;;3.47;;
11646;SDS011;5880;52.342;9.662;2022-09-30T02:31:45;4.20;;;3.80;;
11646;SDS011;5880;52.342;9.662;2022-09-30T02:34:30;3.97;;;3.67;;
11646;SDS011;5880;52.342;9.662;2022-09-30T02:37:24;4.17;;;3.87;;
11646;SDS011;5880;52.342;9.662;2022-09-30T02:40:07;4.30;;;4.00;;
11646;SDS011;5880;52.342;9.662;2022-09-30T02:43:04;4.83;;;3.60;;
11646;SDS011;5880;52.342;9.662;2022-09-30T02:45:37;3.80;;;3.50;;
11646;SDS011;5880;52.342;9.662;2022-09-30T02:51:39;4.00;;;3.70;;
11646;SDS011;5880;52.342;9.662;2022-09-30T02:54:28;3.80;;;3.50;;
11646;SDS011;5880;52.342;9.662;2022-09-30T02:59:47;5.10;;;4.37;;
11646;SDS011;5880;52.342;9.662;2022-09-30T03:02:17;4.37;;;3.97;;
11646;SDS011;5880;52.342;9.662;2022-09-30T03:04:44;4.20;;;3.90;;
11646;SDS011;5880;52.342;9.662;2022-09-30T03:07:13;5.07;;;3.87;;
11646;SDS011;5880;52.342;9.662;2022-09-30T03:09:39;4.13;;;3.83;;
11646;SDS011;5880;52.342;9.662;2022-09-30T03:24:35;5.60;;;4.57;;
11646;SDS011;5880;52.342;9.662;2022-09-30T03:30:10;5.07;;;4.60;;
11646;SDS011;5880;52.342;9.662;2022-09-30T03:44:01;4.83;;;4.43;;
11646;SDS011;5880;52.342;9.662;2022-09-30T03:46:55;4.90;;;4.37;;
11646;SDS011;5880;52.342;9.662;2022-09-30T03:49:41;4.50;;;4.10;;
11646;SDS011;5880;52.342;9.662;2022-09-30T03:52:20;4.07;;;3.77;;
11646;SDS011;5880;52.342;9.662;2022-09-30T03:54:51;4.40;;;4.00;;
11646;SDS011;5880;52.342;9.662;2022-09-30T03:57:24;4.40;;;4.00;;
11646;SDS011;5880;52.342;9.662;2022-09-30T03:59:54;4.30;;;3.87;;
11646;SDS011;5880;52.342;9.662;2022-09-30T04:02:21;4.70;;;4.30;;
11646;SDS011;5880;52.342;9.662;2022-09-30T04:04:48;4.60;;;4.10;;
11646;SDS011;5880;52.342;9.662;2022-09-30T04:07:14;4.67;;;4.27;;
11646;SDS011;5880;52.342;9.662;2022-09-30T04:09:39;5.33;;;4.83;;
11646;SDS011;5880;52.342;9.662;2022-09-30T04:12:05;4.50;;;4.10;;
11646;SDS011;5880;52.342;9.662;2022-09-30T04:14:32;4.77;;;4.37;;
11646;SDS011;5880;52.342;9.662;2022-09-30T04:16:59;5.00;;;4.50;;
11646;SDS011;5880;52.342;9.662;2022-09-30T04:19:26;5.00;;;4.43;;
11646;SDS011;5880;52.342;9.662;2022-09-30T04:21:52;4.70;;;4.30;;
11646;SDS011;5880;52.342;9.662;2022-09-30T04:24:22;4.90;;;4.50;;
11646;SDS011;5880;52.342;9.662;2022-09-30T04:26:49;4.67;;;4.27;;
11646;SDS011;5880;52.342;9.662;2022-09-30T04:29:15;4.80;;;4.40;;
11646;SDS011;5880;52.342;9.662;2022-09-30T04:31:41;5.20;;;4.77;;
11646;SDS011;5880;52.342;9.662;2022-09-30T04:34:07;5.13;;;4.63;;
11646;SDS011;5880;52.342;9.662;2022-09-30T04:36:35;5.47;;;4.97;;
11646;SDS011;5880;52.342;9.662;2022-09-30T04:39:02;5.20;;;4.73;;
11646;SDS011;5880;52.342;9.662;2022-09-30T04:41:28;5.00;;;4.60;;
11646;SDS011;5880;52.342;9.662;2022-09-30T04:43:56;5.77;;;5.20;;
11646;SDS011;5880;52.342;9.662;2022-09-30T04:46:22;5.60;;;5.10;;
11646;SDS011;5880;52.342;9.662;2022-09-30T04:48:48;5.57;;;5.07;;
11646;SDS011;5880;52.342;9.662;2022-09-30T04:51:14;5.63;;;5.13;;
11646;SDS011;5880;52.342;9.662;2022-09-30T04:53:43;4.77;;;4.37;;
11646;SDS011;5880;52.342;9.662;2022-09-30T04:56:10;5.67;;;5.07;;
11646;SDS011;5880;52.342;9.662;2022-09-30T04:58:35;5.20;;;4.80;;
11646;SDS011;5880;52.342;9.662;2022-09-30T05:03:33;5.07;;;4.57;;
11646;SDS011;5880;52.342;9.662;2022-09-30T05:06:00;5.60;;;5.10;;
11646;SDS011;5880;52.342;9.662;2022-09-30T05:08:26;6.53;;;5.00;;
11646;SDS011;5880;52.342;9.662;2022-09-30T05:10:56;5.17;;;4.67;;
11646;SDS011;5880;52.342;9.662;2022-09-30T05:13:42;5.30;;;4.80;;
11646;SDS011;5880;52.342;9.662;2022-09-30T05:16:09;5.40;;;4.90;;
11646;SDS011;5880;52.342;9.662;2022-09-30T05:18:35;4.80;;;4.40;;
11646;SDS011;5880;52.342;9.662;2022-09-30T05:21:03;6.00;;;5.23;;
11646;SDS011;5880;52.342;9.662;2022-09-30T05:23:30;5.13;;;4.73;;
11646;SDS011;5880;52.342;9.662;2022-09-30T05:25:57;4.83;;;4.37;;
11646;SDS011;5880;52.342;9.662;2022-09-30T05:28:24;6.07;;;4.53;;
11646;SDS011;5880;52.342;9.662;2022-09-30T05:30:55;5.37;;;4.87;;
11646;SDS011;5880;52.342;9.662;2022-09-30T05:33:24;5.47;;;4.97;;
11646;SDS011;5880;52.342;9.662;2022-09-30T05:35:51;5.47;;;5.00;;
11646;SDS011;5880;52.342;9.662;2022-09-30T05:38:17;4.63;;;4.23;;
11646;SDS011;5880;52.342;9.662;2022-09-30T05:40:43;5.07;;;4.57;;
11646;SDS011;5880;52.342;9.662;2022-09-30T05:43:09;4.90;;;4.50;;
11646;SDS011;5880;52.342;9.662;2022-09-30T05:45:34;4.90;;;4.40;;
11646;SDS011;5880;52.342;9.662;2022-09-30T05:48:00;5.13;;;4.63;;
11646;SDS011;5880;52.342;9.662;2022-09-30T05:50:26;5.50;;;5.00;;
11646;SDS011;5880;52.342;9.662;2022-09-30T05:52:52;5.83;;;5.23;;
11646;SDS011;5880;52.342;9.662;2022-09-30T05:55:18;5.10;;;4.63;;
11646;SDS011;5880;52.342;9.662;2022-09-30T05:57:46;5.50;;;5.00;;
11646;SDS011;5880;52.342;9.662;2022-09-30T06:00:14;4.60;;;4.20;;
11646;SDS011;5880;52.342;9.662;2022-09-30T06:02:41;6.43;;;4.80;;
11646;SDS011;5880;52.342;9.662;2022-09-30T06:05:09;5.87;;;5.27;;
11646;SDS011;5880;52.342;9.662;2022-09-30T06:07:36;5.30;;;4.80;;
11646;SDS011;5880;52.342;9.662;2022-09-30T06:10:04;5.53;;;4.93;;
11646;SDS011;5880;52.342;9.662;2022-09-30T06:12:32;5.83;;;4.57;;
11646;SDS011;5880;52.342;9.662;2022-09-30T06:14:59;7.70;;;5.07;;
11646;SDS011;5880;52.342;9.662;2022-09-30T06:17:25;6.40;;;5.37;;
11646;SDS011;5880;52.342;9.662;2022-09-30T06:19:50;5.60;;;4.97;;
11646;SDS011;5880;52.342;9.662;2022-09-30T06:22:16;6.03;;;5.40;;
11646;SDS011;5880;52.342;9.662;2022-09-30T06:24:42;6.10;;;5.47;;
11646;SDS011;5880;52.342;9.662;2022-09-30T06:27:09;6.23;;;5.63;;
11646;SDS011;5880;52.342;9.662;2022-09-30T06:29:35;6.43;;;5.83;;
11646;SDS011;5880;52.342;9.662;2022-09-30T06:32:01;7.63;;;5.87;;
11646;SDS011;5880;52.342;9.662;2022-09-30T06:34:27;6.27;;;5.67;;
11646;SDS011;5880;52.342;9.662;2022-09-30T06:36:53;6.87;;;6.17;;
11646;SDS011;5880;52.342;9.662;2022-09-30T06:39:18;9.13;;;6.50;;
11646;SDS011;5880;52.342;9.662;2022-09-30T06:41:44;6.90;;;5.87;;
11646;SDS011;5880;52.342;9.662;2022-09-30T06:44:10;6.40;;;5.80;;
11646;SDS011;5880;52.342;9.662;2022-09-30T06:46:37;6.37;;;5.77;;
11646;SDS011;5880;52.342;9.662;2022-09-30T06:49:03;6.13;;;5.53;;
11646;SDS011;5880;52.342;9.662;2022-09-30T06:51:30;6.03;;;5.43;;
11646;SDS011;5880;52.342;9.662;2022-09-30T06:54:00;6.87;;;6.20;;
11646;SDS011;5880;52.342;9.662;2022-09-30T06:56:26;7.03;;;6.43;;
11646;SDS011;5880;52.342;9.662;2022-09-30T06:58:53;6.43;;;5.83;;
11646;SDS011;5880;52.342;9.662;2022-09-30T07:01:21;6.30;;;5.70;;
11646;SDS011;5880;52.342;9.662;2022-09-30T07:03:48;6.80;;;6.10;;
11646;SDS011;5880;52.342;9.662;2022-09-30T07:06:21;7.50;;;6.80;;
11646;SDS011;5880;52.342;9.662;2022-09-30T07:08:49;6.70;;;6.10;;
11646;SDS011;5880;52.342;9.662;2022-09-30T07:11:15;7.37;;;6.50;;
11646;SDS011;5880;52.342;9.662;2022-09-30T07:13:41;6.93;;;6.07;;
11646;SDS011;5880;52.342;9.662;2022-09-30T07:16:09;7.23;;;6.53;;
11646;SDS011;5880;52.342;9.662;2022-09-30T07:18:37;7.30;;;6.03;;
11646;SDS011;5880;52.342;9.662;2022-09-30T07:21:06;7.23;;;6.40;;
11646;SDS011;5880;52.342;9.662;2022-09-30T07:23:33;6.93;;;6.03;;
11646;SDS011;5880;52.342;9.662;2022-09-30T07:26:01;6.83;;;6.13;;
11646;SDS011;5880;52.342;9.662;2022-09-30T07:28:30;6.07;;;5.47;;
11646;SDS011;5880;52.342;9.662;2022-09-30T07:31:00;6.00;;;5.40;;
11646;SDS011;5880;52.342;9.662;2022-09-30T07:33:32;6.43;;;5.83;;
11646;SDS011;5880;52.342;9.662;2022-09-30T07:35:59;6.53;;;5.93;;
11646;SDS011;5880;52.342;9.662;2022-09-30T07:38:29;6.60;;;5.90;;
11646;SDS011;5880;52.342;9.662;2022-09-30T07:40:58;6.10;;;5.60;;
11646;SDS011;5880;52.342;9.662;2022-09-30T07:43:29;6.13;;;5.53;;
11646;SDS011;5880;52.342;9.662;2022-09-30T07:46:13;9.30;;;5.60;;
11646;SDS011;5880;52.342;9.662;2022-09-30T07:48:48;7.00;;;6.30;;
11646;SDS011;5880;52.342;9.662;2022-09-30T07:51:22;7.03;;;5.70;;
11646;SDS011;5880;52.342;9.662;2022-09-30T07:53:54;6.73;;;6.07;;
11646;SDS011;5880;52.342;9.662;2022-09-30T07:56:25;7.23;;;6.53;;
11646;SDS011;5880;52.342;9.662;2022-09-30T07:58:56;7.93;;;5.73;;
11646;SDS011;5880;52.342;9.662;2022-09-30T08:01:25;7.07;;;6.37;;
11646;SDS011;5880;52.342;9.662;2022-09-30T08:03:53;7.43;;;6.73;;
11646;SDS011;5880;52.342;9.662;2022-09-30T08:06:22;6.73;;;6.03;;
11646;SDS011;5880;52.342;9.662;2022-09-30T08:08:50;6.63;;;5.90;;
11646;SDS011;5880;52.342;9.662;2022-09-30T08:11:18;6.73;;;5.70;;
11646;SDS011;5880;52.342;9.662;2022-09-30T08:13:49;7.03;;;6.27;;
11646;SDS011;5880;52.342;9.662;2022-09-30T08:16:16;7.83;;;6.70;;
11646;SDS011;5880;52.342;9.662;2022-09-30T08:18:43;7.00;;;6.30;;
11646;SDS011;5880;52.342;9.662;2022-09-30T08:21:08;7.60;;;6.77;;
11646;SDS011;5880;52.342;9.662;2022-09-30T08:23:34;7.97;;;6.97;;
11646;SDS011;5880;52.342;9.662;2022-09-30T08:26:06;6.83;;;6.00;;
11646;SDS011;5880;52.342;9.662;2022-09-30T08:28:35;6.90;;;6.30;;
11646;SDS011;5880;52.342;9.662;2022-09-30T08:33:40;7.30;;;6.63;;
11646;SDS011;5880;52.342;9.662;2022-09-30T08:36:07;7.33;;;6.63;;
11646;SDS011;5880;52.342;9.662;2022-09-30T08:38:39;6.93;;;6.33;;
11646;SDS011;5880;52.342;9.662;2022-09-30T08:41:10;7.10;;;6.40;;
11646;SDS011;5880;52.342;9.662;2022-09-30T08:44:15;5.87;;;5.30;;
11646;SDS011;5880;52.342;9.662;2022-09-30T08:50:15;5.97;;;5.40;;
11646;SDS011;5880;52.342;9.662;2022-09-30T08:53:07;6.00;;;5.07;;
11646;SDS011;5880;52.342;9.662;2022-09-30T08:55:47;6.27;;;5.53;;
11646;SDS011;5880;52.342;9.662;2022-09-30T08:58:18;6.20;;;5.60;;
11646;SDS011;5880;52.342;9.662;2022-09-30T09:00:54;4.37;;;4.03;;
11646;SDS011;5880;52.342;9.662;2022-09-30T09:03:38;4.90;;;4.50;;
11646;SDS011;5880;52.342;9.662;2022-09-30T09:20:31;4.93;;;4.13;;
11646;SDS011;5880;52.342;9.662;2022-09-30T09:22:56;4.73;;;4.33;;
11646;SDS011;5880;52.342;9.662;2022-09-30T09:25:28;4.27;;;3.97;;
11646;SDS011;5880;52.342;9.662;2022-09-30T09:28:00;5.33;;;4.83;;
11646;SDS011;5880;52.342;9.662;2022-09-30T09:30:39;5.00;;;4.50;;
11646;SDS011;5880;52.342;9.662;2022-09-30T09:33:19;6.03;;;4.25;;
11646;SDS011;5880;52.342;9.662;2022-09-30T09:38:33;4.75;;;4.30;;
11646;SDS011;5880;52.342;9.662;2022-09-30T09:44:07;4.35;;;3.95;;
11646;SDS011;5880;52.342;9.662;2022-09-30T09:46:52;4.80;;;4.25;;
11646;SDS011;5880;52.342;9.662;2022-09-30T09:49:29;5.85;;;4.50;;
11646;SDS011;5880;52.342;9.662;2022-09-30T09:54:38;4.88;;;3.50;;
11646;SDS011;5880;52.342;9.662;2022-09-30T09:57:16;3.67;;;3.38;;
11646;SDS011;5880;52.342;9.662;2022-09-30T10:06:04;3.60;;;3.30;;
11646;SDS011;5880;52.342;9.662;2022-09-30T10:08:37;3.60;;;3.30;;
11646;SDS011;5880;52.342;9.662;2022-09-30T10:11:24;3.97;;;3.65;;
11646;SDS011;5880;52.342;9.662;2022-09-30T10:13:54;3.38;;;3.08;;
11646;SDS011;5880;52.342;9.662;2022-09-30T10:16:33;3.75;;;3.45;;
11646;SDS011;5880;52.342;9.662;2022-09-30T10:19:02;3.40;;;3.17;;
11646;SDS011;5880;52.342;9.662;2022-09-30T10:21:45;3.63;;;3.33;;
11646;SDS011;5880;52.342;9.662;2022-09-30T10:24:18;3.17;;;2.88;;
11646;SDS011;5880;52.342;9.662;2022-09-30T10:26:53;3.22;;;2.92;;
11646;SDS011;5880;52.342;9.662;2022-09-30T10:29:23;3.78;;;3.40;;
11646;SDS011;5880;52.342;9.662;2022-09-30T10:31:56;3.92;;;3.45;;
11646;SDS011;5880;52.342;9.662;2022-09-30T10:34:28;4.07;;;3.67;;
11646;SDS011;5880;52.342;9.662;2022-09-30T10:37:16;3.72;;;3.42;;
11646;SDS011;5880;52.342;9.662;2022-09-30T10:39:55;3.50;;;3.20;;
11646;SDS011;5880;52.342;9.662;2022-09-30T10:42:33;3.53;;;3.20;;
11646;SDS011;5880;52.342;9.662;2022-09-30T10:45:05;4.10;;;3.70;;
11646;SDS011;5880;52.342;9.662;2022-09-30T10:47:47;4.10;;;3.60;;
11646;SDS011;5880;52.342;9.662;2022-09-30T10:50:19;3.58;;;3.28;;
11646;SDS011;5880;52.342;9.662;2022-09-30T10:53:01;3.90;;;3.50;;
11646;SDS011;5880;52.342;9.662;2022-09-30T10:55:41;3.42;;;3.13;;
11646;SDS011;5880;52.342;9.662;2022-09-30T10:58:20;4.43;;;3.72;;
11646;SDS011;5880;52.342;9.662;2022-09-30T11:01:35;4.05;;;3.60;;
11646;SDS011;5880;52.342;9.662;2022-09-30T11:04:11;3.80;;;3.50;;
11646;SDS011;5880;52.342;9.662;2022-09-30T11:07:20;3.70;;;3.33;;
11646;SDS011;5880;52.342;9.662;2022-09-30T11:10:10;3.80;;;3.40;;
11646;SDS011;5880;52.342;9.662;2022-09-30T11:13:05;5.35;;;3.83;;
11646;SDS011;5880;52.342;9.662;2022-09-30T11:21:51;4.00;;;3.60;;
11646;SDS011;5880;52.342;9.662;2022-09-30T11:24:40;4.00;;;3.50;;
11646;SDS011;5880;52.342;9.662;2022-09-30T11:29:50;3.53;;;3.20;;
11646;SDS011;5880;52.342;9.662;2022-09-30T11:32:44;3.90;;;3.50;;
11646;SDS011;5880;52.342;9.662;2022-09-30T11:36:00;4.28;;;3.15;;
11646;SDS011;5880;52.342;9.662;2022-09-30T11:42:47;3.65;;;3.20;;
11646;SDS011;5880;52.342;9.662;2022-09-30T11:45:43;3.67;;;3.25;;
11646;SDS011;5880;52.342;9.662;2022-09-30T11:49:38;4.13;;;3.40;;
11646;SDS011;5880;52.342;9.662;2022-09-30T11:51:44;5.07;;;3.13;;
11646;SDS011;5880;52.342;9.662;2022-09-30T12:00:00;4.45;;;3.42;;
11646;SDS011;5880;52.342;9.662;2022-09-30T12:02:39;3.35;;;3.05;;
11646;SDS011;5880;52.342;9.662;2022-09-30T12:08:14;3.50;;;3.17;;
11646;SDS011;5880;52.342;9.662;2022-09-30T12:10:42;3.67;;;3.22;;
11646;SDS011;5880;52.342;9.662;2022-09-30T12:13:19;4.57;;;3.10;;
11646;SDS011;5880;52.342;9.662;2022-09-30T12:15:50;3.10;;;2.80;;
11646;SDS011;5880;52.342;9.662;2022-09-30T12:18:26;3.20;;;2.85;;
11646;SDS011;5880;52.342;9.662;2022-09-30T12:21:08;3.35;;;3.00;;
11646;SDS011;5880;52.342;9.662;2022-09-30T12:24:01;3.20;;;2.90;;
11646;SDS011;5880;52.342;9.662;2022-09-30T12:27:03;2.80;;;2.45;;
11646;SDS011;5880;52.342;9.662;2022-09-30T12:29:59;3.00;;;2.70;;
11646;SDS011;5880;52.342;9.662;2022-09-30T12:41:42;1.90;;;1.80;;
11646;SDS011;5880;52.342;9.662;2022-09-30T12:48:05;2.95;;;2.33;;
11646;SDS011;5880;52.342;9.662;2022-09-30T12:50:40;4.32;;;2.28;;
11646;SDS011;5880;52.342;9.662;2022-09-30T12:53:21;3.55;;;2.50;;
11646;SDS011;5880;52.342;9.662;2022-09-30T12:56:03;3.05;;;2.75;;
11646;SDS011;5880;52.342;9.662;2022-09-30T12:58:44;2.88;;;2.67;;
11646;SDS011;5880;52.342;9.662;2022-09-30T13:01:28;4.13;;;3.10;;
11646;SDS011;5880;52.342;9.662;2022-09-30T13:06:25;2.97;;;2.60;;
11646;SDS011;5880;52.342;9.662;2022-09-30T13:11:41;2.90;;;2.70;;
11646;SDS011;5880;52.342;9.662;2022-09-30T13:14:34;2.78;;;2.38;;
11646;SDS011;5880;52.342;9.662;2022-09-30T13:19:36;2.22;;;2.03;;
11646;SDS011;5880;52.342;9.662;2022-09-30T13:32:38;2.42;;;1.95;;
11646;SDS011;5880;52.342;9.662;2022-09-30T13:40:39;3.08;;;2.30;;
11646;SDS011;5880;52.342;9.662;2022-09-30T13:43:21;2.45;;;2.20;;
11646;SDS011;5880;52.342;9.662;2022-09-30T13:46:06;1.90;;;1.80;;
11646;SDS011;5880;52.342;9.662;2022-09-30T13:51:42;3.30;;;2.00;;
11646;SDS011;5880;52.342;9.662;2022-09-30T13:57:00;2.80;;;2.00;;
11646;SDS011;5880;52.342;9.662;2022-09-30T14:14:17;2.45;;;1.98;;
11646;SDS011;5880;52.342;9.662;2022-09-30T14:22:21;2.60;;;1.85;;
11646;SDS011;5880;52.342;9.662;2022-09-30T14:24:51;2.00;;;1.80;;
11646;SDS011;5880;52.342;9.662;2022-09-30T14:35:17;2.35;;;2.15;;
11646;SDS011;5880;52.342;9.662;2022-09-30T14:40:29;2.05;;;1.85;;
11646;SDS011;5880;52.342;9.662;2022-09-30T14:42:58;2.13;;;1.70;;
11646;SDS011;5880;52.342;9.662;2022-09-30T14:45:35;2.92;;;1.83;;
11646;SDS011;5880;52.342;9.662;2022-09-30T14:48:07;2.15;;;1.55;;
11646;SDS011;5880;52.342;9.662;2022-09-30T14:50:50;2.67;;;1.80;;
11646;SDS011;5880;52.342;9.662;2022-09-30T14:53:28;2.00;;;1.80;;
11646;SDS011;5880;52.342;9.662;2022-09-30T14:55:57;2.47;;;1.90;;
11646;SDS011;5880;52.342;9.662;2022-09-30T14:58:26;2.08;;;1.67;;
11646;SDS011;5880;52.342;9.662;2022-09-30T15:03:26;1.73;;;1.50;;
11646;SDS011;5880;52.342;9.662;2022-09-30T15:05:54;2.10;;;1.80;;
11646;SDS011;5880;52.342;9.662;2022-09-30T15:08:22;2.40;;;1.85;;
11646;SDS011;5880;52.342;9.662;2022-09-30T15:10:49;2.13;;;1.70;;
11646;SDS011;5880;52.342;9.662;2022-09-30T15:13:18;2.40;;;2.20;;
11646;SDS011;5880;52.342;9.662;2022-09-30T15:15:52;2.90;;;2.10;;
11646;SDS011;5880;52.342;9.662;2022-09-30T15:18:39;2.40;;;1.65;;
11646;SDS011;5880;52.342;9.662;2022-09-30T15:21:11;2.17;;;1.88;;
11646;SDS011;5880;52.342;9.662;2022-09-30T15:23:44;2.35;;;1.85;;
11646;SDS011;5880;52.342;9.662;2022-09-30T15:26:16;1.83;;;1.73;;
11646;SDS011;5880;52.342;9.662;2022-09-30T15:28:45;3.30;;;1.60;;
11646;SDS011;5880;52.342;9.662;2022-09-30T15:34:06;2.50;;;2.30;;
11646;SDS011;5880;52.342;9.662;2022-09-30T15:36:45;3.72;;;2.40;;
11646;SDS011;5880;52.342;9.662;2022-09-30T15:39:22;3.35;;;2.70;;
11646;SDS011;5880;52.342;9.662;2022-09-30T15:42:13;2.05;;;1.85;;
11646;SDS011;5880;52.342;9.662;2022-09-30T15:45:02;2.83;;;1.77;;
11646;SDS011;5880;52.342;9.662;2022-09-30T15:50:47;2.03;;;1.83;;
11646;SDS011;5880;52.342;9.662;2022-09-30T15:53:19;3.05;;;2.20;;
11646;SDS011;5880;52.342;9.662;2022-09-30T15:55:52;1.90;;;1.70;;
11646;SDS011;5880;52.342;9.662;2022-09-30T15:58:40;3.50;;;1.80;;
11646;SDS011;5880;52.342;9.662;2022-09-30T16:03:59;2.85;;;1.90;;
11646;SDS011;5880;52.342;9.662;2022-09-30T16:06:33;2.10;;;1.90;;
11646;SDS011;5880;52.342;9.662;2022-09-30T16:12:05;2.30;;;2.10;;
11646;SDS011;5880;52.342;9.662;2022-09-30T16:14:43;1.70;;;1.58;;
11646;SDS011;5880;52.342;9.662;2022-09-30T16:17:28;1.90;;;1.75;;
11646;SDS011;5880;52.342;9.662;2022-09-30T16:20:01;3.00;;;2.13;;
11646;SDS011;5880;52.342;9.662;2022-09-30T16:25:46;2.50;;;2.22;;
11646;SDS011;5880;52.342;9.662;2022-09-30T16:28:00;2.47;;;2.17;;
11646;SDS011;5880;52.342;9.662;2022-09-30T16:30:36;2.60;;;2.40;;
11646;SDS011;5880;52.342;9.662;2022-09-30T16:33:15;3.67;;;2.38;;
11646;SDS011;5880;52.342;9.662;2022-09-30T16:35:42;2.58;;;2.35;;
11646;SDS011;5880;52.342;9.662;2022-09-30T16:38:11;2.50;;;2.30;;
11646;SDS011;5880;52.342;9.662;2022-09-30T16:40:39;3.00;;;2.70;;
11646;SDS011;5880;52.342;9.662;2022-09-30T16:43:06;2.70;;;2.50;;
11646;SDS011;5880;52.342;9.662;2022-09-30T16:45:34;3.50;;;2.90;;
11646;SDS011;5880;52.342;9.662;2022-09-30T16:48:04;3.45;;;2.90;;
11646;SDS011;5880;52.342;9.662;2022-09-30T16:50:40;2.75;;;2.55;;
11646;SDS011;5880;52.342;9.662;2022-09-30T16:53:13;2.65;;;2.45;;
11646;SDS011;5880;52.342;9.662;2022-09-30T16:55:39;2.72;;;2.53;;
11646;SDS011;5880;52.342;9.662;2022-09-30T16:58:05;3.33;;;2.80;;
11646;SDS011;5880;52.342;9.662;2022-09-30T17:00:31;2.85;;;2.65;;
11646;SDS011;5880;52.342;9.662;2022-09-30T17:02:57;3.17;;;2.80;;
11646;SDS011;5880;52.342;9.662;2022-09-30T17:05:23;3.00;;;2.55;;
11646;SDS011;5880;52.342;9.662;2022-09-30T17:07:52;2.65;;;2.45;;
11646;SDS011;5880;52.342;9.662;2022-09-30T17:10:25;2.83;;;2.60;;
11646;SDS011;5880;52.342;9.662;2022-09-30T17:12:54;2.83;;;2.60;;
11646;SDS011;5880;52.342;9.662;2022-09-30T17:15:24;3.53;;;2.50;;
11646;SDS011;5880;52.342;9.662;2022-09-30T17:17:55;3.65;;;2.72;;
11646;SDS011;5880;52.342;9.662;2022-09-30T17:20:21;3.88;;;2.97;;
11646;SDS011;5880;52.342;9.662;2022-09-30T17:22:48;2.73;;;2.53;;
11646;SDS011;5880;52.342;9.662;2022-09-30T17:25:15;2.75;;;2.42;;
11646;SDS011;5880;52.342;9.662;2022-09-30T17:27:41;2.80;;;2.60;;
11646;SDS011;5880;52.342;9.662;2022-09-30T17:30:07;3.80;;;2.53;;
11646;SDS011;5880;52.342;9.662;2022-09-30T17:32:34;3.83;;;3.00;;
11646;SDS011;5880;52.342;9.662;2022-09-30T17:35:00;4.50;;;2.47;;
11646;SDS011;5880;52.342;9.662;2022-09-30T17:37:29;2.73;;;2.17;;
11646;SDS011;5880;52.342;9.662;2022-09-30T17:39:55;3.10;;;2.20;;
11646;SDS011;5880;52.342;9.662;2022-09-30T17:42:21;4.17;;;2.50;;
11646;SDS011;5880;52.342;9.662;2022-09-30T17:45:05;3.40;;;2.43;;
11646;SDS011;5880;52.342;9.662;2022-09-30T17:47:31;2.30;;;2.10;;
11646;SDS011;5880;52.342;9.662;2022-09-30T17:49:57;2.63;;;2.23;;
11646;SDS011;5880;52.342;9.662;2022-09-30T17:52:23;2.63;;;2.23;;
11646;SDS011;5880;52.342;9.662;2022-09-30T17:54:50;2.40;;;2.20;;
11646;SDS011;5880;52.342;9.662;2022-09-30T17:57:17;3.23;;;2.60;;
11646;SDS011;5880;52.342;9.662;2022-09-30T17:59:44;2.57;;;2.37;;
11646;SDS011;5880;52.342;9.662;2022-09-30T18:02:11;2.40;;;2.20;;
11646;SDS011;5880;52.342;9.662;2022-09-30T18:04:39;2.57;;;2.37;;
11646;SDS011;5880;52.342;9.662;2022-09-30T18:07:05;2.70;;;2.50;;
11646;SDS011;5880;52.342;9.662;2022-09-30T18:09:33;4.87;;;2.90;;
11646;SDS011;5880;52.342;9.662;2022-09-30T18:12:02;3.40;;;2.63;;
11646;SDS011;5880;52.342;9.662;2022-09-30T18:14:29;4.00;;;2.40;;
11646;SDS011;5880;52.342;9.662;2022-09-30T18:17:00;3.17;;;2.70;;
11646;SDS011;5880;52.342;9.662;2022-09-30T18:19:28;4.03;;;2.57;;
11646;SDS011;5880;52.342;9.662;2022-09-30T18:21:54;3.80;;;2.40;;
11646;SDS011;5880;52.342;9.662;2022-09-30T18:24:20;2.87;;;2.50;;
11646;SDS011;5880;52.342;9.662;2022-09-30T18:27:06;2.90;;;2.00;;
11646;SDS011;5880;52.342;9.662;2022-09-30T18:29:32;4.33;;;2.50;;
11646;SDS011;5880;52.342;9.662;2022-09-30T18:31:57;3.00;;;2.47;;
11646;SDS011;5880;52.342;9.662;2022-09-30T18:34:23;2.77;;;2.57;;
11646;SDS011;5880;52.342;9.662;2022-09-30T18:36:49;2.90;;;2.67;;
11646;SDS011;5880;52.342;9.662;2022-09-30T18:39:14;2.87;;;2.67;;
11646;SDS011;5880;52.342;9.662;2022-09-30T18:41:40;3.00;;;2.70;;
11646;SDS011;5880;52.342;9.662;2022-09-30T18:44:08;3.47;;;2.70;;
11646;SDS011;5880;52.342;9.662;2022-09-30T18:46:34;3.90;;;3.40;;
11646;SDS011;5880;52.342;9.662;2022-09-30T18:49:01;3.37;;;3.03;;
11646;SDS011;5880;52.342;9.662;2022-09-30T18:51:28;3.90;;;3.20;;
11646;SDS011;5880;52.342;9.662;2022-09-30T18:53:55;3.47;;;3.17;;
11646;SDS011;5880;52.342;9.662;2022-09-30T18:56:24;3.40;;;3.10;;
11646;SDS011;5880;52.342;9.662;2022-09-30T18:58:59;4.27;;;3.70;;
11646;SDS011;5880;52.342;9.662;2022-09-30T19:01:31;4.13;;;3.20;;
11646;SDS011;5880;52.342;9.662;2022-09-30T19:03:57;3.67;;;3.27;;